Time;durP1;ratioP1;P1;durP2;ratioP2;P2;SDS_P1;SDS_P2;PMS_P1;PMS_P2;Temp;Humidity;BMP_temperature;BMP_pressure;BME280_temperature;BME280_humidity;BME280_pressure;Samples;Min_cycle;Max_cycle;Signal;HPM_P1;HPM_P2
2024/04/24 00:01:33;;;;;;;0.10;0.10;;;9.70;76.80;;;;;;5478087;26;20014;-77
2024/04/24 00:03:58;;;;;;;0.10;0.10;;;9.70;76.60;;;;;;5461924;26;20005;-76
2024/04/24 00:06:24;;;;;;;0.10;0.10;;;9.70;76.60;;;;;;5506988;26;20045;-77
2024/04/24 00:08:49;;;;;;;0.10;0.10;;;9.70;76.60;;;;;;5527795;26;19997;-77
2024/04/24 00:11:19;;;;;;;0.10;0.10;;;9.70;76.30;;;;;;5492179;26;20009;-77
2024/04/24 00:13:44;;;;;;;0.10;0.10;;;9.70;76.50;;;;;;5491456;26;20004;-77
2024/04/24 00:16:10;;;;;;;0.10;0.10;;;9.70;76.30;;;;;;5492988;26;19993;-77
2024/04/24 00:18:36;;;;;;;0.10;0.10;;;9.60;76.40;;;;;;5491766;26;20002;-76
2024/04/24 00:21:01;;;;;;;0.10;0.10;;;9.60;76.30;;;;;;5491202;26;20401;-76
2024/04/24 00:23:27;;;;;;;0.10;0.10;;;9.60;76.30;;;;;;5490845;26;20086;-76
2024/04/24 00:25:58;;;;;;;0.10;0.10;;;9.50;76.30;;;;;;5514947;26;20002;-77
2024/04/24 00:28:24;;;;;;;0.10;0.10;;;9.50;76.50;;;;;;5492040;26;20002;-76
2024/04/24 00:30:57;;;;;;;0.10;0.10;;;9.50;76.40;;;;;;5476905;26;19990;-76
2024/04/24 00:33:23;;;;;;;0.00;0.00;;;9.50;76.40;;;;;;5490313;26;20354;-77
2024/04/24 00:35:49;;;;;;;0.10;0.10;;;9.50;76.20;;;;;;5499502;26;20008;-76
2024/04/24 00:38:14;;;;;;;0.10;0.10;;;9.30;76.40;;;;;;5494858;26;20006;-76
2024/04/24 00:40:40;;;;;;;0.10;0.10;;;9.40;76.50;;;;;;5456354;26;20002;-76
2024/04/24 00:43:05;;;;;;;0.10;0.10;;;9.40;76.30;;;;;;5456072;26;19999;-76
2024/04/24 00:45:31;;;;;;;0.10;0.10;;;9.30;76.40;;;;;;5473715;26;20002;-76
2024/04/24 00:47:57;;;;;;;0.10;0.10;;;9.40;76.20;;;;;;5492454;26;20010;-76
2024/04/24 00:50:24;;;;;;;0.10;0.10;;;9.30;76.40;;;;;;5491333;26;20070;-77
2024/04/24 00:52:50;;;;;;;0.10;0.10;;;9.30;76.40;;;;;;5521106;26;20099;-76
2024/04/24 00:55:16;;;;;;;0.10;0.10;;;9.30;76.00;;;;;;5491604;26;20946;-76
2024/04/24 00:57:42;;;;;;;0.10;0.10;;;9.30;76.40;;;;;;5492415;26;20002;-76
2024/04/24 01:00:08;;;;;;;0.10;0.10;;;9.20;76.50;;;;;;5463891;26;20031;-76
2024/04/24 01:02:34;;;;;;;0.10;0.10;;;9.20;76.60;;;;;;5459259;26;20014;-77
2024/04/24 01:05:00;;;;;;;0.10;0.10;;;9.20;76.60;;;;;;5469340;26;20040;-77
2024/04/24 01:07:25;;;;;;;0.10;0.10;;;9.20;76.70;;;;;;5527112;26;20069;-76
2024/04/24 01:09:51;;;;;;;0.10;0.10;;;9.20;76.70;;;;;;5507088;26;20411;-76
2024/04/24 01:12:17;;;;;;;0.10;0.10;;;9.20;76.50;;;;;;5475592;26;19994;-76
2024/04/24 01:14:42;;;;;;;0.10;0.10;;;9.20;76.10;;;;;;5495608;26;20046;-76
2024/04/24 01:17:10;;;;;;;0.10;0.10;;;9.10;76.40;;;;;;5496145;26;19994;-76
2024/04/24 01:19:46;;;;;;;0.10;0.10;;;9.10;76.20;;;;;;5524164;26;20014;-76
2024/04/24 01:22:33;;;;;;;0.10;0.10;;;9.10;76.50;;;;;;5491415;26;20010;-76
2024/04/24 01:25:14;;;;;;;0.10;0.10;;;9.20;76.50;;;;;;5493403;26;20139;-76
2024/04/24 01:27:40;;;;;;;0.10;0.10;;;9.10;76.40;;;;;;5459107;26;20014;-76
2024/04/24 01:30:06;;;;;;;0.10;0.10;;;9.10;76.40;;;;;;5469892;26;20078;-76
2024/04/24 01:32:32;;;;;;;0.10;0.10;;;9.10;76.20;;;;;;5495375;26;19998;-76
2024/04/24 01:34:58;;;;;;;0.10;0.10;;;9.00;76.30;;;;;;5492480;26;20005;-76
2024/04/24 01:37:23;;;;;;;0.10;0.10;;;9.00;76.40;;;;;;5526632;26;20061;-76
2024/04/24 01:39:49;;;;;;;0.10;0.10;;;9.10;76.90;;;;;;5529357;26;20440;-76
2024/04/24 01:42:14;;;;;;;0.10;0.10;;;9.10;77.40;;;;;;5529921;26;20004;-76
2024/04/24 01:44:40;;;;;;;0.10;0.10;;;9.10;77.20;;;;;;5511200;26;19998;-76
2024/04/24 01:47:05;;;;;;;0.10;0.10;;;9.10;77.20;;;;;;5493515;26;20473;-76
2024/04/24 01:49:31;;;;;;;0.10;0.10;;;9.10;77.50;;;;;;5494508;26;19994;-76
2024/04/24 01:51:56;;;;;;;0.10;0.10;;;9.20;77.30;;;;;;5494841;26;20067;-77
2024/04/24 01:54:22;;;;;;;0.10;0.10;;;9.20;77.60;;;;;;5493154;26;19990;-76
2024/04/24 01:56:48;;;;;;;0.10;0.10;;;9.20;78.00;;;;;;5491528;26;20002;-76
2024/04/24 01:59:13;;;;;;;0.10;0.10;;;9.20;78.10;;;;;;5493136;26;20413;-76
2024/04/24 02:01:39;;;;;;;0.10;0.10;;;9.30;78.20;;;;;;5494710;26;20006;-76
2024/04/24 02:04:04;;;;;;;0.10;0.10;;;9.30;78.20;;;;;;5493489;26;20002;-76
2024/04/24 02:06:30;;;;;;;0.10;0.10;;;9.40;78.40;;;;;;5509956;26;19997;-76
2024/04/24 02:08:56;;;;;;;0.10;0.10;;;9.40;78.30;;;;;;5528471;26;19993;-76
2024/04/24 02:11:21;;;;;;;0.10;0.10;;;9.40;78.80;;;;;;5494563;26;20561;-76
2024/04/24 02:13:47;;;;;;;0.10;0.10;;;9.40;78.80;;;;;;5492019;26;20005;-76
2024/04/24 02:16:13;;;;;;;0.10;0.10;;;9.50;78.60;;;;;;5492002;26;20013;-76
2024/04/24 02:18:38;;;;;;;0.10;0.10;;;9.50;78.40;;;;;;5493691;26;20009;-76
2024/04/24 02:21:08;;;;;;;0.10;0.10;;;9.50;78.40;;;;;;5494534;26;20013;-77
2024/04/24 02:23:34;;;;;;;0.10;0.10;;;9.60;78.50;;;;;;5493960;26;20010;-77
2024/04/24 02:26:09;;;;;;;0.10;0.10;;;9.60;78.40;;;;;;5491488;26;19994;-77
2024/04/24 02:28:35;;;;;;;0.10;0.10;;;9.70;78.50;;;;;;5492982;26;20017;-77
2024/04/24 02:31:01;;;;;;;0.10;0.10;;;9.70;78.50;;;;;;5494084;26;20001;-76
2024/04/24 02:33:27;;;;;;;0.10;0.10;;;9.70;78.20;;;;;;5492546;26;19998;-76
2024/04/24 02:35:52;;;;;;;0.10;0.10;;;9.70;78.20;;;;;;5502416;26;19993;-77
2024/04/24 02:38:18;;;;;;;0.10;0.10;;;9.70;78.40;;;;;;5528950;26;20074;-76
2024/04/24 02:40:44;;;;;;;0.10;0.10;;;9.70;78.20;;;;;;5497055;26;20017;-77
2024/04/24 02:43:10;;;;;;;0.10;0.10;;;9.70;78.10;;;;;;5494674;26;20006;-76
2024/04/24 02:45:35;;;;;;;0.10;0.10;;;9.70;78.10;;;;;;5494093;26;19990;-76
2024/04/24 02:48:01;;;;;;;0.10;0.10;;;9.70;78.60;;;;;;5492332;26;20002;-77
2024/04/24 02:50:27;;;;;;;0.10;0.10;;;9.70;78.50;;;;;;5463394;26;20013;-76
2024/04/24 02:52:53;;;;;;;0.10;0.10;;;9.70;78.40;;;;;;5456777;26;20005;-76
2024/04/24 02:55:19;;;;;;;0.10;0.10;;;9.70;78.50;;;;;;5467822;26;20831;-76
2024/04/24 02:57:45;;;;;;;0.10;0.10;;;9.70;78.60;;;;;;5492745;26;20070;-76
2024/04/24 03:00:11;;;;;;;0.10;0.10;;;9.70;78.30;;;;;;5492043;26;20002;-76
2024/04/24 03:02:37;;;;;;;0.10;0.10;;;9.70;78.40;;;;;;5491768;26;20030;-76
2024/04/24 03:05:02;;;;;;;0.10;0.10;;;9.70;78.60;;;;;;5493785;26;20013;-76
2024/04/24 03:07:28;;;;;;;0.10;0.10;;;9.70;78.30;;;;;;5526229;26;19994;-77
2024/04/24 03:09:54;;;;;;;0.10;0.10;;;9.80;78.30;;;;;;5513549;26;20001;-76
2024/04/24 03:12:20;;;;;;;0.10;0.10;;;9.80;78.60;;;;;;5531097;25;20005;-76
2024/04/24 03:14:46;;;;;;;0.10;0.10;;;9.70;78.90;;;;;;5530252;26;20924;-76
2024/04/24 03:17:12;;;;;;;0.10;0.10;;;9.70;78.20;;;;;;5524505;25;19994;-76
2024/04/24 03:19:38;;;;;;;0.10;0.10;;;9.80;78.10;;;;;;5492038;26;20005;-75
2024/04/24 03:22:03;;;;;;;0.10;0.10;;;9.70;78.60;;;;;;5492980;26;19998;-76
2024/04/24 03:24:29;;;;;;;0.10;0.10;;;9.80;78.80;;;;;;5493015;26;20002;-76
2024/04/24 03:26:54;;;;;;;0.10;0.10;;;9.80;79.00;;;;;;5491524;26;19998;-77
2024/04/24 03:29:20;;;;;;;0.10;0.10;;;9.80;79.00;;;;;;5522702;26;20325;-77
2024/04/24 03:31:46;;;;;;;0.10;0.10;;;9.80;78.80;;;;;;5493366;26;20074;-76
2024/04/24 03:34:11;;;;;;;0.10;0.10;;;9.90;78.90;;;;;;5493093;26;19990;-76
2024/04/24 03:36:37;;;;;;;0.10;0.10;;;9.90;79.10;;;;;;5510149;26;20443;-76
2024/04/24 03:39:03;;;;;;;0.10;0.10;;;9.90;79.20;;;;;;5528439;26;20001;-76
2024/04/24 03:41:28;;;;;;;0.10;0.10;;;10.00;79.20;;;;;;5529003;26;20010;-76
2024/04/24 03:43:54;;;;;;;0.10;0.10;;;10.00;79.00;;;;;;5530292;26;20012;-76
2024/04/24 03:46:20;;;;;;;0.10;0.10;;;10.00;78.90;;;;;;5493397;26;20074;-76
2024/04/24 03:48:46;;;;;;;0.10;0.10;;;10.00;79.00;;;;;;5492625;26;19994;-76
2024/04/24 03:51:11;;;;;;;0.10;0.10;;;10.00;78.80;;;;;;5492234;26;20002;-77
2024/04/24 03:53:37;;;;;;;0.10;0.10;;;10.00;78.70;;;;;;5491486;26;20002;-76
2024/04/24 03:56:02;;;;;;;0.10;0.10;;;10.00;78.60;;;;;;5492826;26;20063;-76
2024/04/24 03:58:28;;;;;;;0.10;0.10;;;10.00;79.10;;;;;;5521263;26;19998;-77
2024/04/24 04:00:54;;;;;;;0.10;0.10;;;10.00;79.10;;;;;;5490837;26;20013;-76
2024/04/24 04:03:19;;;;;;;0.10;0.10;;;10.00;79.00;;;;;;5491688;26;19998;-77
2024/04/24 04:05:45;;;;;;;0.10;0.10;;;10.00;78.80;;;;;;5527646;26;20432;-77
2024/04/24 04:08:11;;;;;;;0.10;0.10;;;10.00;79.20;;;;;;5529004;25;20021;-76
2024/04/24 04:10:37;;;;;;;0.10;0.10;;;10.00;78.70;;;;;;5499236;26;20013;-76
2024/04/24 04:13:02;;;;;;;0.10;0.10;;;10.00;79.00;;;;;;5491493;26;20381;-76
2024/04/24 04:15:28;;;;;;;0.10;0.10;;;9.90;78.70;;;;;;5492038;26;20006;-76
2024/04/24 04:17:54;;;;;;;0.10;0.10;;;9.90;78.60;;;;;;5493267;26;20018;-76
2024/04/24 04:20:19;;;;;;;0.10;0.10;;;9.90;79.10;;;;;;5491572;26;20010;-78
2024/04/24 04:22:45;;;;;;;0.10;0.10;;;9.90;78.80;;;;;;5491343;26;19998;-76
2024/04/24 04:25:11;;;;;;;0.10;0.10;;;9.90;78.90;;;;;;5490582;26;20507;-77
2024/04/24 04:27:36;;;;;;;0.10;0.10;;;9.90;79.20;;;;;;5522063;26;20069;-76
2024/04/24 04:30:02;;;;;;;0.10;0.10;;;9.90;79.50;;;;;;5474638;26;20002;-76
2024/04/24 04:32:28;;;;;;;0.10;0.10;;;9.90;79.80;;;;;;5492704;26;20005;-76
2024/04/24 04:34:53;;;;;;;0.10;0.10;;;9.80;79.90;;;;;;5490317;26;19997;-76
2024/04/24 04:37:19;;;;;;;0.10;0.10;;;9.80;79.60;;;;;;5513430;26;20335;-76
2024/04/24 04:39:45;;;;;;;0.10;0.10;;;9.90;79.20;;;;;;5491780;26;19998;-76
2024/04/24 04:42:10;;;;;;;0.10;0.10;;;9.80;79.50;;;;;;5490846;26;20491;-76
2024/04/24 04:44:36;;;;;;;0.10;0.10;;;9.80;79.80;;;;;;5490727;26;20074;-76
2024/04/24 04:47:02;;;;;;;0.10;0.10;;;9.90;79.70;;;;;;5491870;26;20005;-76
2024/04/24 04:49:27;;;;;;;0.10;0.10;;;9.80;79.80;;;;;;5492453;26;19997;-76
2024/04/24 04:51:53;;;;;;;0.10;0.10;;;9.80;79.70;;;;;;5491119;26;19995;-76
2024/04/24 04:54:19;;;;;;;0.10;0.10;;;9.80;79.80;;;;;;5492443;26;19998;-76
2024/04/24 04:56:44;;;;;;;0.10;0.10;;;9.80;79.90;;;;;;5490859;26;20013;-76
2024/04/24 04:59:10;;;;;;;0.10;0.10;;;9.80;79.70;;;;;;5489396;26;19994;-75
2024/04/24 05:01:36;;;;;;;0.10;0.10;;;9.80;79.70;;;;;;5487780;26;20343;-77
2024/04/24 05:04:01;;;;;;;0.10;0.10;;;9.90;79.40;;;;;;5490264;26;20084;-78
2024/04/24 05:06:27;;;;;;;0.10;0.10;;;9.90;79.80;;;;;;5495486;26;19999;-76
2024/04/24 05:08:53;;;;;;;0.10;0.10;;;9.90;79.80;;;;;;5493212;26;20009;-77
2024/04/24 05:11:18;;;;;;;0.10;0.10;;;9.80;80.50;;;;;;5528934;26;20008;-77
2024/04/24 05:13:44;;;;;;;0.10;0.10;;;9.80;80.70;;;;;;5497330;26;20344;-77
2024/04/24 05:16:13;;;;;;;0.10;0.10;;;9.90;80.10;;;;;;5492177;26;19994;-76
2024/04/24 05:18:39;;;;;;;0.10;0.10;;;9.90;80.20;;;;;;5455234;26;20376;-77
2024/04/24 05:21:08;;;;;;;0.10;0.10;;;9.90;80.20;;;;;;5453633;26;20068;-76
2024/04/24 05:23:34;;;;;;;0.10;0.10;;;9.90;80.10;;;;;;5477038;26;20876;-77
2024/04/24 05:29:04;;;;;;;0.10;0.10;;;10.00;80.20;;;;;;5490118;26;20006;-76
2024/04/24 05:31:35;;;;;;;0.10;0.10;;;9.90;80.20;;;;;;5494400;26;20366;-81
2024/04/24 05:34:01;;;;;;;0.10;0.10;;;10.00;80.20;;;;;;5489918;26;20041;-79
2024/04/24 05:36:27;;;;;;;0.10;0.10;;;10.00;80.00;;;;;;5507776;26;20016;-78
2024/04/24 05:38:52;;;;;;;0.10;0.10;;;10.00;80.00;;;;;;5501084;26;20441;-79
2024/04/24 05:41:18;;;;;;;0.10;0.10;;;10.10;79.80;;;;;;5504770;26;20009;-78
2024/04/24 05:43:43;;;;;;;0.10;0.10;;;10.10;80.10;;;;;;5491136;26;20005;-78
2024/04/24 05:46:09;;;;;;;0.10;0.10;;;10.10;80.00;;;;;;5490688;26;20013;-78
2024/04/24 05:48:35;;;;;;;0.10;0.10;;;10.10;79.90;;;;;;5493369;26;20002;-79
2024/04/24 05:51:00;;;;;;;0.10;0.10;;;10.20;79.90;;;;;;5461938;26;19999;-77
2024/04/24 05:53:26;;;;;;;0.10;0.10;;;10.20;79.90;;;;;;5495324;26;20008;-78
2024/04/24 05:55:52;;;;;;;0.10;0.10;;;10.20;79.80;;;;;;5495373;26;20002;-78
2024/04/24 05:58:17;;;;;;;0.10;0.10;;;10.20;79.70;;;;;;5493678;26;20336;-77
2024/04/24 06:00:43;;;;;;;0.10;0.10;;;10.20;79.90;;;;;;5490066;26;20074;-78
2024/04/24 06:03:15;;;;;;;0.10;0.10;;;10.20;80.00;;;;;;5471010;26;20007;-78
2024/04/24 06:05:40;;;;;;;0.10;0.10;;;10.30;80.00;;;;;;5494029;26;19998;-78
2024/04/24 06:08:06;;;;;;;0.10;0.10;;;10.20;80.10;;;;;;5478146;26;20070;-76
2024/04/24 06:10:35;;;;;;;0.10;0.10;;;10.30;79.90;;;;;;5480251;26;20071;-82
2024/04/24 06:13:04;;;;;;;0.10;0.10;;;10.30;79.90;;;;;;5477209;26;20006;-77
2024/04/24 06:15:29;;;;;;;0.10;0.10;;;10.40;79.90;;;;;;5486472;26;20324;-79
2024/04/24 06:17:55;;;;;;;0.10;0.10;;;10.40;79.70;;;;;;5480014;26;19998;-78
2024/04/24 06:20:24;;;;;;;0.10;0.10;;;10.50;79.40;;;;;;5492405;26;20334;-76
2024/04/24 06:22:50;;;;;;;0.10;0.10;;;10.50;79.60;;;;;;5478538;26;20074;-77
2024/04/24 06:25:16;;;;;;;0.10;0.10;;;10.50;78.90;;;;;;5475368;26;20003;-77
2024/04/24 06:27:44;;;;;;;0.10;0.10;;;10.50;79.00;;;;;;5476197;26;19998;-77
2024/04/24 06:30:10;;;;;;;0.10;0.10;;;10.60;79.30;;;;;;5473827;26;20378;-78
2024/04/24 06:32:36;;;;;;;0.10;0.10;;;10.60;79.70;;;;;;5480230;26;20017;-78
2024/04/24 06:35:02;;;;;;;0.10;0.10;;;10.70;79.60;;;;;;5477071;26;20666;-79
2024/04/24 06:37:28;;;;;;;0.10;0.10;;;10.70;79.40;;;;;;5488874;26;20008;-77
2024/04/24 06:39:54;;;;;;;0.10;0.10;;;10.70;79.40;;;;;;5479064;26;20002;-77
2024/04/24 06:42:20;;;;;;;0.10;0.10;;;10.70;78.80;;;;;;5478712;26;21813;-77
2024/04/24 06:44:46;;;;;;;0.10;0.10;;;10.80;79.30;;;;;;5467316;26;20038;-79
2024/04/24 06:47:11;;;;;;;0.10;0.10;;;10.80;79.60;;;;;;5490431;26;20002;-76
2024/04/24 06:49:37;;;;;;;0.10;0.10;;;10.80;79.70;;;;;;5484096;26;20002;-76
2024/04/24 06:52:03;;;;;;;0.10;0.10;;;10.90;79.10;;;;;;5480700;26;20032;-77
2024/04/24 06:54:29;;;;;;;0.10;0.10;;;11.00;78.80;;;;;;5489015;26;20002;-77
2024/04/24 06:56:56;;;;;;;0.10;0.10;;;11.10;79.00;;;;;;5474810;26;19999;-76
2024/04/24 06:59:23;;;;;;;0.10;0.10;;;11.20;78.80;;;;;;5476679;26;20070;-77
2024/04/24 07:01:49;;;;;;;0.10;0.10;;;11.20;78.40;;;;;;5479234;26;20002;-76
2024/04/24 07:04:15;;;;;;;0.10;0.10;;;11.30;78.30;;;;;;5476086;26;20345;-77
2024/04/24 07:06:40;;;;;;;0.10;0.10;;;11.30;78.30;;;;;;5513980;26;20320;-76
2024/04/24 07:09:06;;;;;;;0.10;0.10;;;11.30;77.70;;;;;;5513437;26;20004;-76
2024/04/24 07:11:32;;;;;;;0.10;0.10;;;11.40;76.70;;;;;;5499900;26;20428;-81
2024/04/24 07:13:58;;;;;;;0.10;0.10;;;11.50;76.40;;;;;;5472301;26;20445;-76
2024/04/24 07:16:24;;;;;;;0.10;0.10;;;11.50;76.30;;;;;;5451614;26;20093;-75
2024/04/24 07:18:49;;;;;;;0.10;0.10;;;11.60;76.60;;;;;;5468433;26;20009;-75
2024/04/24 07:21:15;;;;;;;0.10;0.10;;;11.60;75.90;;;;;;5494186;26;19998;-76
2024/04/24 07:23:41;;;;;;;0.10;0.10;;;11.70;75.60;;;;;;5493872;26;20339;-76
2024/04/24 07:26:06;;;;;;;0.10;0.10;;;11.80;74.90;;;;;;5492668;26;19998;-76
2024/04/24 07:28:32;;;;;;;0.10;0.10;;;11.90;74.80;;;;;;5470296;26;20441;-76
2024/04/24 07:30:58;;;;;;;0.10;0.10;;;12.00;75.50;;;;;;5468728;26;20039;-79
2024/04/24 07:33:24;;;;;;;0.10;0.10;;;12.10;74.60;;;;;;5495481;26;20002;-79
2024/04/24 07:35:49;;;;;;;0.10;0.10;;;12.10;73.90;;;;;;5495580;26;19998;-79
2024/04/24 07:38:15;;;;;;;0.10;0.10;;;12.30;74.00;;;;;;5511479;26;20082;-79
2024/04/24 07:40:41;;;;;;;0.10;0.10;;;12.30;73.60;;;;;;5486651;26;20427;-79
2024/04/24 07:43:08;;;;;;;0.10;0.10;;;12.30;72.70;;;;;;5486951;26;19998;-79
2024/04/24 07:45:34;;;;;;;0.10;0.10;;;12.40;72.50;;;;;;5487166;26;19994;-79
2024/04/24 07:48:00;;;;;;;0.10;0.10;;;12.50;72.30;;;;;;5488420;26;19998;-79
2024/04/24 07:50:25;;;;;;;0.10;0.10;;;12.50;73.50;;;;;;5489701;26;20443;-79
2024/04/24 07:52:51;;;;;;;0.10;0.10;;;12.40;73.30;;;;;;5491672;26;20006;-79
2024/04/24 07:55:17;;;;;;;0.10;0.10;;;12.50;73.30;;;;;;5494045;26;20009;-79
2024/04/24 07:57:42;;;;;;;0.10;0.10;;;12.50;72.70;;;;;;5492839;26;20002;-79
2024/04/24 08:00:09;;;;;;;0.10;0.10;;;12.50;72.60;;;;;;5493135;26;20448;-79
2024/04/24 08:02:36;;;;;;;0.10;0.10;;;12.70;71.90;;;;;;5462601;26;19990;-79
2024/04/24 08:05:02;;;;;;;0.10;0.10;;;12.80;71.00;;;;;;5485662;26;20010;-79
2024/04/24 08:07:28;;;;;;;0.10;0.10;;;12.80;70.20;;;;;;5505069;26;19998;-79
2024/04/24 08:09:54;;;;;;;0.10;0.10;;;12.90;70.40;;;;;;5509572;26;20001;-79
2024/04/24 08:12:19;;;;;;;0.10;0.10;;;12.90;69.10;;;;;;5530152;26;20440;-79
2024/04/24 08:14:46;;;;;;;0.10;0.10;;;12.80;69.60;;;;;;5528636;26;19997;-78
2024/04/24 08:17:11;;;;;;;0.10;0.10;;;12.80;68.80;;;;;;5517255;26;20092;-79
2024/04/24 08:19:37;;;;;;;0.10;0.10;;;12.70;70.40;;;;;;5490785;26;20002;-79
2024/04/24 08:22:02;;;;;;;0.10;0.10;;;12.60;70.50;;;;;;5493357;26;20043;-78
2024/04/24 08:24:28;;;;;;;0.10;0.10;;;12.50;70.00;;;;;;5490520;26;20002;-79
2024/04/24 08:26:54;;;;;;;0.10;0.10;;;12.40;71.40;;;;;;5491082;26;19998;-79
2024/04/24 08:29:19;;;;;;;0.10;0.10;;;12.40;71.20;;;;;;5489605;26;20005;-78
2024/04/24 08:31:45;;;;;;;0.10;0.10;;;12.40;70.60;;;;;;5493203;25;20005;-79
2024/04/24 08:34:11;;;;;;;0.10;0.10;;;12.50;70.60;;;;;;5491619;26;20361;-78
2024/04/24 08:36:36;;;;;;;0.10;0.10;;;12.60;70.30;;;;;;5509875;26;20436;-79
2024/04/24 08:39:02;;;;;;;0.10;0.10;;;12.70;69.70;;;;;;5511342;26;20069;-78
2024/04/24 08:41:28;;;;;;;0.10;0.10;;;12.50;69.10;;;;;;5490376;26;20382;-79
2024/04/24 08:43:55;;;;;;;0.10;0.10;;;12.60;68.60;;;;;;5491210;26;19994;-79
2024/04/24 08:46:22;;;;;;;0.10;0.10;;;12.50;68.50;;;;;;5490155;26;20030;-79
2024/04/24 08:48:49;;;;;;;0.10;0.10;;;12.50;68.00;;;;;;5490617;26;19998;-78
2024/04/24 08:51:16;;;;;;;0.10;0.10;;;12.40;68.90;;;;;;5491050;26;19998;-78
2024/04/24 08:54:02;;;;;;;0.10;0.10;;;12.40;68.90;;;;;;5491857;26;20013;-79
2024/04/24 08:56:33;;;;;;;0.10;0.10;;;12.30;68.70;;;;;;5490813;26;20002;-78
2024/04/24 08:59:03;;;;;;;0.10;0.10;;;12.20;68.20;;;;;;5521854;26;20006;-78
2024/04/24 09:01:33;;;;;;;0.00;0.00;;;12.20;68.70;;;;;;5488764;26;19994;-78
2024/04/24 09:04:05;;;;;;;0.10;0.10;;;12.20;69.00;;;;;;5456415;26;20009;-78
2024/04/24 09:06:33;;;;;;;0.10;0.10;;;12.30;68.90;;;;;;5494852;26;19998;-78
2024/04/24 09:09:00;;;;;;;0.10;0.10;;;12.30;68.00;;;;;;5525152;25;20001;-78
2024/04/24 09:11:26;;;;;;;0.10;0.10;;;12.30;68.10;;;;;;5490525;26;20075;-79
2024/04/24 09:13:53;;;;;;;0.10;0.10;;;12.30;67.30;;;;;;5491352;26;20006;-78
2024/04/24 09:16:25;;;;;;;0.10;0.10;;;12.30;68.20;;;;;;5490843;26;20010;-79
2024/04/24 09:19:03;;;;;;;0.10;0.10;;;12.30;68.50;;;;;;5488306;26;19998;-78
2024/04/24 09:21:30;;;;;;;0.10;0.10;;;12.40;69.00;;;;;;5491157;26;20018;-78
2024/04/24 09:23:56;;;;;;;0.10;0.10;;;12.50;68.30;;;;;;5487804;26;20461;-79
2024/04/24 09:26:27;;;;;;;0.10;0.10;;;12.50;67.60;;;;;;5468191;26;20002;-79
2024/04/24 09:28:53;;;;;;;0.10;0.10;;;12.50;68.00;;;;;;5494534;26;20054;-79
2024/04/24 09:31:18;;;;;;;0.10;0.10;;;12.40;67.90;;;;;;5466810;26;20003;-79
2024/04/24 09:33:45;;;;;;;0.10;0.10;;;12.30;68.40;;;;;;5459199;26;19999;-79
2024/04/24 09:36:11;;;;;;;0.10;0.10;;;12.30;67.80;;;;;;5498027;26;20371;-80
2024/04/24 09:38:39;;;;;;;0.10;0.10;;;12.30;67.80;;;;;;5530655;26;20012;-79
2024/04/24 09:41:05;;;;;;;0.10;0.10;;;12.40;67.80;;;;;;5507018;26;20074;-79
2024/04/24 09:43:31;;;;;;;0.10;0.10;;;12.50;68.70;;;;;;5457443;26;20329;-79
2024/04/24 09:45:58;;;;;;;0.10;0.10;;;12.50;68.00;;;;;;5487267;26;20075;-80
2024/04/24 09:48:24;;;;;;;0.10;0.10;;;12.60;68.20;;;;;;5477214;26;19998;-79
2024/04/24 09:50:50;;;;;;;0.10;0.10;;;12.60;68.90;;;;;;5493897;26;20009;-80
2024/04/24 09:53:25;;;;;;;0.10;0.10;;;12.70;69.60;;;;;;5495522;26;20032;-79
2024/04/24 09:56:12;;;;;;;0.10;0.10;;;12.60;69.90;;;;;;5493682;26;20002;-79
2024/04/24 09:58:42;;;;;;;0.10;0.10;;;12.60;69.90;;;;;;5459280;26;20059;-79
2024/04/24 10:01:08;;;;;;;0.10;0.10;;;12.70;70.40;;;;;;5457300;26;20055;-79
2024/04/24 10:03:38;;;;;;;0.10;0.10;;;12.70;71.00;;;;;;5469665;26;20087;-79
2024/04/24 10:06:06;;;;;;;0.10;0.10;;;12.70;70.50;;;;;;5506191;26;20002;-79
2024/04/24 10:08:34;;;;;;;0.10;0.10;;;12.70;70.60;;;;;;5530265;26;19997;-80
2024/04/24 10:11:01;;;;;;;0.10;0.10;;;12.80;70.40;;;;;;5497316;25;19998;-79
2024/04/24 10:13:35;;;;;;;0.10;0.10;;;12.80;70.50;;;;;;5492250;26;19998;-79
2024/04/24 10:16:04;;;;;;;0.10;0.10;;;12.90;70.40;;;;;;5475972;26;19998;-79
2024/04/24 10:18:30;;;;;;;0.10;0.10;;;12.90;70.20;;;;;;5493536;26;20016;-79
2024/04/24 10:20:56;;;;;;;0.10;0.10;;;13.00;69.80;;;;;;5491395;26;19998;-79
2024/04/24 10:23:27;;;;;;;0.10;0.10;;;13.00;69.60;;;;;;5493270;26;20318;-79
2024/04/24 10:25:54;;;;;;;0.10;0.10;;;13.10;69.20;;;;;;5493282;26;20332;-79
2024/04/24 10:28:21;;;;;;;0.10;0.10;;;13.20;68.90;;;;;;5494249;26;20010;-79
2024/04/24 10:30:48;;;;;;;0.10;0.10;;;13.30;68.60;;;;;;5472082;26;19999;-79
2024/04/24 10:33:15;;;;;;;0.10;0.10;;;13.50;69.00;;;;;;5461084;26;20009;-78
2024/04/24 10:35:40;;;;;;;0.10;0.10;;;13.70;68.70;;;;;;5472381;26;19999;-80
2024/04/24 10:38:07;;;;;;;0.10;0.10;;;13.80;68.00;;;;;;5503356;26;20103;-78
2024/04/24 10:40:33;;;;;;;0.10;0.10;;;13.90;67.60;;;;;;5491354;26;20003;-78
2024/04/24 10:43:01;;;;;;;0.10;0.10;;;14.00;66.90;;;;;;5473034;26;20013;-78
2024/04/24 10:45:28;;;;;;;0.10;0.10;;;14.10;66.50;;;;;;5475999;26;20468;-78
2024/04/24 10:47:55;;;;;;;0.10;0.10;;;14.10;66.40;;;;;;5494543;26;20038;-77
2024/04/24 10:50:25;;;;;;;0.17;0.17;;;14.10;66.80;;;;;;5494581;26;20014;-77
2024/04/24 10:52:55;;;;;;;0.10;0.10;;;14.30;66.60;;;;;;5491859;26;20012;-78
2024/04/24 10:55:22;;;;;;;0.10;0.10;;;14.40;65.30;;;;;;5494251;26;20013;-78
2024/04/24 10:57:51;;;;;;;0.10;0.10;;;14.40;64.80;;;;;;5492896;26;20025;-79
2024/04/24 11:00:28;;;;;;;0.10;0.10;;;14.20;65.00;;;;;;5493236;26;20041;-77
2024/04/24 11:02:57;;;;;;;0.10;0.10;;;14.00;65.40;;;;;;5494164;26;20042;-77
2024/04/24 11:05:23;;;;;;;0.10;0.10;;;14.00;66.40;;;;;;5494697;26;20070;-78
2024/04/24 11:08:00;;;;;;;0.10;0.10;;;13.90;67.50;;;;;;5496021;25;20032;-77
2024/04/24 11:10:26;;;;;;;0.10;0.10;;;13.80;67.50;;;;;;5518467;26;20002;-77
2024/04/24 11:12:51;;;;;;;0.10;0.10;;;13.70;68.40;;;;;;5530746;25;20043;-77
2024/04/24 11:15:22;;;;;;;0.10;0.10;;;13.40;69.50;;;;;;5504762;26;19994;-78
2024/04/24 11:17:50;;;;;;;0.10;0.10;;;13.40;70.00;;;;;;5483155;26;20401;-78
2024/04/24 11:20:22;;;;;;;0.10;0.10;;;13.40;69.90;;;;;;5469003;26;20448;-77
2024/04/24 11:22:48;;;;;;;0.10;0.10;;;13.30;69.70;;;;;;5492681;26;20002;-78
2024/04/24 11:25:14;;;;;;;0.10;0.10;;;13.20;70.70;;;;;;5481871;26;20928;-77
2024/04/24 11:27:42;;;;;;;0.10;0.10;;;13.10;70.30;;;;;;5457830;26;20007;-77
2024/04/24 11:30:15;;;;;;;0.10;0.10;;;13.20;68.90;;;;;;5488352;26;20009;-77
2024/04/24 11:32:53;;;;;;;0.10;0.10;;;13.30;68.60;;;;;;5491960;26;20437;-77
2024/04/24 11:35:34;;;;;;;;;;;;;;;;;;;;;
2024/04/24 11:38:00;;;;;;;0.10;0.10;;;13.50;66.10;;;;;;5457483;26;20449;-79
2024/04/24 11:40:45;;;;;;;0.10;0.10;;;13.60;65.30;;;;;;5456605;26;19991;-82
2024/04/24 11:43:10;;;;;;;0.10;0.10;;;13.70;65.60;;;;;;5486424;26;20002;-80
2024/04/24 11:45:36;;;;;;;0.10;0.10;;;13.90;64.90;;;;;;5477908;26;19999;-87
2024/04/24 11:48:04;;;;;;;0.10;0.10;;;14.20;63.80;;;;;;5456923;26;20009;-85
2024/04/24 11:50:30;;;;;;;0.10;0.10;;;14.30;63.70;;;;;;5474203;26;20009;-80
2024/04/24 11:53:07;;;;;;;0.10;0.10;;;14.30;63.20;;;;;;5460708;26;19998;-83
2024/04/24 11:55:35;;;;;;;0.10;0.10;;;14.20;63.60;;;;;;5463853;26;19998;-81
2024/04/24 11:58:09;;;;;;;0.10;0.10;;;14.40;64.10;;;;;;5472414;26;20429;-84
2024/04/24 12:00:39;;;;;;;0.10;0.10;;;14.40;63.80;;;;;;5475185;26;20002;-83
2024/04/24 12:03:05;;;;;;;0.10;0.10;;;14.40;63.90;;;;;;5485044;26;20008;-83
2024/04/24 12:05:30;;;;;;;0.10;0.10;;;14.50;62.70;;;;;;5485597;26;19995;-82
2024/04/24 12:07:56;;;;;;;0.10;0.10;;;14.60;62.70;;;;;;5472235;26;20002;-83
2024/04/24 12:10:26;;;;;;;0.10;0.10;;;14.80;62.80;;;;;;5470901;26;20010;-83
2024/04/24 12:12:54;;;;;;;0.15;0.15;;;14.90;62.00;;;;;;5482303;26;20013;-83
2024/04/24 12:15:20;;;;;;;0.10;0.10;;;15.10;63.10;;;;;;5476628;26;20995;-83
2024/04/24 12:17:46;;;;;;;0.10;0.10;;;15.10;62.50;;;;;;5484772;26;19998;-82
2024/04/24 12:20:12;;;;;;;0.10;0.10;;;15.20;62.70;;;;;;5473464;26;20006;-82
2024/04/24 12:22:38;;;;;;;0.10;0.10;;;15.30;62.60;;;;;;5473288;26;19995;-83
2024/04/24 12:25:04;;;;;;;0.10;0.10;;;15.40;61.50;;;;;;5469519;26;19998;-83
2024/04/24 12:27:29;;;;;;;0.20;0.20;;;15.40;60.80;;;;;;5471196;26;20457;-83
2024/04/24 12:29:57;;;;;;;0.10;0.10;;;15.70;62.40;;;;;;5480699;26;19990;-84
2024/04/24 12:32:23;;;;;;;0.10;0.10;;;16.00;61.80;;;;;;5478074;26;20009;-84
2024/04/24 12:34:49;;;;;;;0.10;0.10;;;16.20;58.40;;;;;;5475576;26;20017;-83
2024/04/24 12:37:14;;;;;;;0.20;0.20;;;16.20;56.70;;;;;;5488033;26;20002;-81
2024/04/24 12:39:40;;;;;;;0.10;0.10;;;16.30;58.00;;;;;;5488161;26;20013;-86
2024/04/24 12:42:06;;;;;;;0.10;0.10;;;16.20;56.20;;;;;;5481351;26;19995;-85
2024/04/24 12:44:33;;;;;;;0.10;0.10;;;16.00;57.00;;;;;;5468166;26;20888;-84
2024/04/24 12:46:59;;;;;;;0.10;0.10;;;16.00;57.70;;;;;;5465775;26;20010;-84
2024/04/24 12:49:24;;;;;;;0.10;0.10;;;16.00;58.20;;;;;;5470770;26;20013;-82
2024/04/24 12:51:50;;;;;;;0.10;0.10;;;15.80;56.90;;;;;;5490753;26;20022;-83
2024/04/24 12:54:16;;;;;;;0.10;0.10;;;15.70;57.90;;;;;;5484193;26;20006;-86